createdAt,value
2017-11-06T00:00:18.406Z,0
2017-11-06T00:01:18.388Z,0
2017-11-06T00:02:18.399Z,0
2017-11-06T00:03:18.707Z,0
2017-11-06T00:04:19.031Z,0
2017-11-06T00:05:18.675Z,0
2017-11-06T00:06:18.317Z,0
2017-11-06T00:07:18.649Z,0
2017-11-06T00:08:18.631Z,0
2017-11-06T00:09:18.626Z,0
2017-11-06T00:10:18.603Z,0
2017-11-06T00:11:18.587Z,0
2017-11-06T00:12:18.629Z,0
2017-11-06T00:13:18.227Z,0
2017-11-06T00:14:18.551Z,0
2017-11-06T00:15:18.898Z,0
2017-11-06T00:16:18.523Z,0
2017-11-06T00:17:18.516Z,0
2017-11-06T00:18:18.146Z,0
2017-11-06T00:19:19.158Z,0
2017-11-06T00:20:18.813Z,0
2017-11-06T00:21:18.783Z,0
2017-11-06T00:22:18.771Z,0
2017-11-06T00:23:18.092Z,0
2017-11-06T00:24:18.064Z,0
2017-11-06T00:25:18.053Z,0
2017-11-06T00:26:19.079Z,0
2017-11-06T00:27:18.372Z,0
2017-11-06T00:28:18.685Z,0
2017-11-06T00:29:18.695Z,0
2017-11-06T00:30:19.014Z,0
2017-11-06T00:31:18.301Z,0
2017-11-06T00:32:18.625Z,0
2017-11-06T00:33:18.621Z,0
2017-11-06T00:34:18.261Z,0
2017-11-06T00:35:18.604Z,0
2017-11-06T00:36:18.565Z,0
2017-11-06T00:37:18.556Z,0
2017-11-06T00:38:18.198Z,0
2017-11-06T00:39:17.848Z,0
2017-11-06T00:40:18.847Z,0
2017-11-06T00:41:17.818Z,0
2017-11-06T00:42:17.799Z,0
2017-11-06T00:43:18.138Z,0
2017-11-06T00:44:18.492Z,0
2017-11-06T00:45:18.441Z,0
2017-11-06T00:46:18.423Z,0
2017-11-06T00:47:18.075Z,0
2017-11-06T00:48:18.406Z,0
2017-11-06T00:49:18.057Z,0
2017-11-06T00:50:18.049Z,0
2017-11-06T00:51:17.671Z,0
2017-11-06T00:52:18.679Z,0
2017-11-06T00:53:18.336Z,0
2017-11-06T00:54:18.312Z,0
2017-11-06T00:55:17.621Z,0
2017-11-06T00:56:17.599Z,0
2017-11-06T00:57:18.614Z,0
2017-11-06T00:58:17.925Z,0
2017-11-06T00:59:17.550Z,0
2017-11-06T01:00:18.220Z,0
2017-11-06T01:01:18.212Z,0
2017-11-06T01:02:18.192Z,0
2017-11-06T01:03:17.859Z,0
2017-11-06T01:04:17.483Z,0
2017-11-06T01:05:17.477Z,0
2017-11-06T01:06:17.802Z,0
2017-11-06T01:07:18.138Z,0
2017-11-06T01:08:18.467Z,0
2017-11-06T01:09:17.747Z,0
2017-11-06T01:10:17.392Z,0
2017-11-06T01:11:18.065Z,0
2017-11-06T01:12:18.384Z,0
2017-11-06T01:13:18.407Z,0
2017-11-06T01:14:18.022Z,0
2017-11-06T01:15:17.688Z,0
2017-11-06T01:16:17.658Z,0
2017-11-06T01:17:17.634Z,0
2017-11-06T01:18:18.306Z,0
2017-11-06T01:19:17.601Z,0
2017-11-06T01:20:17.626Z,0
2017-11-06T01:21:17.580Z,0
2017-11-06T01:22:17.559Z,0
2017-11-06T01:23:17.204Z,0
2017-11-06T01:24:17.196Z,0
2017-11-06T01:25:17.529Z,0
2017-11-06T01:26:17.499Z,0
2017-11-06T01:27:17.148Z,0
2017-11-06T01:28:17.517Z,0
2017-11-06T01:29:17.456Z,0
2017-11-06T01:30:18.127Z,0
2017-11-06T01:31:17.785Z,0
2017-11-06T01:32:17.425Z,0
2017-11-06T01:33:17.756Z,0
2017-11-06T01:34:18.414Z,0
2017-11-06T01:35:17.404Z,0
2017-11-06T01:36:17.377Z,0
2017-11-06T01:37:17.703Z,0
2017-11-06T01:38:16.989Z,0
2017-11-06T01:39:18.011Z,0
2017-11-06T01:40:17.642Z,0
2017-11-06T01:41:16.948Z,0
2017-11-06T01:42:17.955Z,0
2017-11-06T01:43:17.296Z,0
2017-11-06T01:44:17.245Z,0
2017-11-06T01:45:17.240Z,0
2017-11-06T01:46:17.580Z,0
2017-11-06T01:47:17.219Z,0
2017-11-06T01:48:16.873Z,0
2017-11-06T01:49:17.509Z,0
2017-11-06T01:50:17.168Z,0
2017-11-06T01:51:17.136Z,0
2017-11-06T01:52:17.128Z,0
2017-11-06T01:53:17.117Z,0
2017-11-06T01:54:17.794Z,0
2017-11-06T01:55:16.803Z,0
2017-11-06T01:56:17.768Z,0
2017-11-06T01:57:16.715Z,0
2017-11-06T01:58:17.431Z,0
2017-11-06T01:59:17.022Z,0
2017-11-06T02:00:17.010Z,0
2017-11-06T02:01:17.001Z,0
2017-11-06T02:02:16.980Z,0
2017-11-06T02:03:16.627Z,0
2017-11-06T02:04:16.963Z,0
2017-11-06T02:05:17.311Z,0
2017-11-06T02:06:16.582Z,0
2017-11-06T02:07:16.571Z,0
2017-11-06T02:08:16.928Z,0
2017-11-06T02:09:16.889Z,0
2017-11-06T02:10:17.222Z,0
2017-11-06T02:11:16.526Z,0
2017-11-06T02:12:16.842Z,0
2017-11-06T02:13:16.845Z,0
2017-11-06T02:14:16.838Z,0
2017-11-06T02:15:16.824Z,0
2017-11-06T02:16:16.782Z,0
2017-11-06T02:17:16.785Z,0
2017-11-06T02:18:17.136Z,0
2017-11-06T02:19:17.085Z,0
2017-11-06T02:20:16.755Z,0
2017-11-06T02:21:17.407Z,0
2017-11-06T02:22:17.376Z,0
2017-11-06T02:23:16.702Z,0
2017-11-06T02:24:17.349Z,0
2017-11-06T02:25:16.649Z,0
2017-11-06T02:26:16.651Z,0
2017-11-06T02:27:17.312Z,0
2017-11-06T02:28:16.968Z,0
2017-11-06T02:29:17.277Z,0
2017-11-06T02:30:17.288Z,0
2017-11-06T02:31:16.578Z,0
2017-11-06T02:32:16.897Z,0
2017-11-06T02:33:16.875Z,0
2017-11-06T02:34:16.518Z,0
2017-11-06T02:35:16.527Z,0
2017-11-06T02:36:16.488Z,0
2017-11-06T02:37:16.478Z,0
2017-11-06T02:38:16.806Z,0
2017-11-06T02:39:16.842Z,0
2017-11-06T02:40:17.501Z,0
2017-11-06T02:41:16.447Z,0
2017-11-06T02:42:16.434Z,0
2017-11-06T02:43:16.750Z,0
2017-11-06T02:44:17.061Z,0
2017-11-06T02:45:16.023Z,0
2017-11-06T02:46:16.360Z,0
2017-11-06T02:47:16.683Z,0
2017-11-06T02:48:15.994Z,0
2017-11-06T02:49:15.957Z,0
2017-11-06T02:50:15.950Z,0
2017-11-06T02:51:16.650Z,0
2017-11-06T02:52:16.266Z,0
2017-11-06T02:53:16.243Z,0
2017-11-06T02:54:15.893Z,0
2017-11-06T02:55:16.559Z,0
2017-11-06T02:56:16.561Z,0
2017-11-06T02:57:15.852Z,0
2017-11-06T02:58:16.521Z,0
2017-11-06T02:59:16.884Z,0
2017-11-06T03:00:16.489Z,0
2017-11-06T03:01:16.140Z,0
2017-11-06T03:02:15.791Z,0
2017-11-06T03:03:16.107Z,0
2017-11-06T03:04:16.089Z,0
2017-11-06T03:05:16.439Z,0
2017-11-06T03:06:16.750Z,0
2017-11-06T03:07:16.056Z,0
2017-11-06T03:08:16.726Z,0
2017-11-06T03:09:16.718Z,0
2017-11-06T03:10:16.008Z,0
2017-11-06T03:11:16.334Z,0
2017-11-06T03:12:15.641Z,0
2017-11-06T03:13:16.645Z,0
2017-11-06T03:14:16.289Z,0
2017-11-06T03:15:15.602Z,0
2017-11-06T03:16:15.926Z,0
2017-11-06T03:17:16.247Z,0
2017-11-06T03:18:15.908Z,0
2017-11-06T03:19:15.873Z,0
2017-11-06T03:20:15.529Z,0
2017-11-06T03:21:15.838Z,0
2017-11-06T03:22:15.488Z,0
2017-11-06T03:23:16.143Z,0
2017-11-06T03:24:15.824Z,0
2017-11-06T03:25:15.783Z,0
2017-11-06T03:26:15.441Z,0
2017-11-06T03:27:15.752Z,0
2017-11-06T03:28:15.754Z,0
2017-11-06T03:29:16.064Z,0
2017-11-06T03:30:15.385Z,0
2017-11-06T03:31:15.745Z,0
2017-11-06T03:32:15.693Z,0
2017-11-06T03:33:16.046Z,0
2017-11-06T03:34:15.649Z,0
2017-11-06T03:35:15.753Z,0
2017-11-06T03:36:15.298Z,0
2017-11-06T03:37:15.277Z,0
2017-11-06T03:38:15.595Z,0
2017-11-06T03:39:15.579Z,0
2017-11-06T03:40:15.597Z,0
2017-11-06T03:41:15.545Z,0
2017-11-06T03:42:15.212Z,0
2017-11-06T03:43:15.521Z,0
2017-11-06T03:44:16.186Z,0
2017-11-06T03:45:15.491Z,0
2017-11-06T03:46:15.810Z,0
2017-11-06T03:47:15.810Z,0
2017-11-06T03:48:15.127Z,0
2017-11-06T03:49:15.104Z,0
2017-11-06T03:50:15.764Z,0
2017-11-06T03:51:15.413Z,0
2017-11-06T03:52:15.394Z,0
2017-11-06T03:53:15.389Z,0
2017-11-06T03:54:15.026Z,0
2017-11-06T03:55:15.001Z,0
2017-11-06T03:56:15.686Z,0
2017-11-06T03:57:15.337Z,0
2017-11-06T03:58:14.961Z,0
2017-11-06T03:59:15.655Z,0
2017-11-06T04:00:15.295Z,0
2017-11-06T04:01:15.259Z,0
2017-11-06T04:02:15.617Z,0
2017-11-06T04:03:16.252Z,0
2017-11-06T04:04:15.921Z,0
2017-11-06T04:05:15.537Z,0
2017-11-06T04:06:15.520Z,0
2017-11-06T04:07:15.175Z,0
2017-11-06T04:08:15.488Z,0
2017-11-06T04:09:15.140Z,0
2017-11-06T04:10:14.781Z,0
2017-11-06T04:11:14.770Z,0
2017-11-06T04:12:15.100Z,0
2017-11-06T04:13:14.737Z,0
2017-11-06T04:14:15.747Z,0
2017-11-06T04:15:15.729Z,0
2017-11-06T04:16:15.065Z,0
2017-11-06T04:17:14.694Z,0
2017-11-06T04:18:16.208Z,0
2017-11-06T04:19:15.023Z,0
2017-11-06T04:20:14.631Z,0
2017-11-06T04:21:14.972Z,0
2017-11-06T04:22:14.602Z,0
2017-11-06T04:23:15.267Z,0
2017-11-06T04:24:14.934Z,0
2017-11-06T04:25:15.241Z,0
2017-11-06T04:26:14.548Z,0
2017-11-06T04:27:14.909Z,0
2017-11-06T04:28:15.199Z,0
2017-11-06T04:29:15.181Z,0
2017-11-06T04:30:15.177Z,0
2017-11-06T04:31:14.816Z,0
2017-11-06T04:32:15.154Z,0
2017-11-06T04:33:14.785Z,0
2017-11-06T04:34:14.779Z,0
2017-11-06T04:35:14.771Z,0
2017-11-06T04:36:15.102Z,0
2017-11-06T04:37:14.729Z,0
2017-11-06T04:38:14.380Z,0
2017-11-06T04:39:14.692Z,0
2017-11-06T04:40:15.062Z,0
2017-11-06T04:41:15.019Z,0
2017-11-06T04:42:15.340Z,0
2017-11-06T04:43:15.319Z,0
2017-11-06T04:44:15.327Z,0
2017-11-06T04:45:14.609Z,0
2017-11-06T04:46:14.589Z,0
2017-11-06T04:47:14.575Z,0
2017-11-06T04:48:14.229Z,0
2017-11-06T04:49:14.206Z,0
2017-11-06T04:50:14.530Z,0
2017-11-06T04:51:15.192Z,0
2017-11-06T04:52:14.509Z,0
2017-11-06T04:53:14.828Z,0
2017-11-06T04:54:14.469Z,0
2017-11-06T04:55:14.116Z,0
2017-11-06T04:56:14.457Z,0
2017-11-06T04:57:14.766Z,0
2017-11-06T04:58:14.413Z,0
2017-11-06T04:59:14.737Z,0
2017-11-06T05:00:14.063Z,0
2017-11-06T05:01:14.038Z,0
2017-11-06T05:02:14.353Z,0
2017-11-06T05:03:14.021Z,0
2017-11-06T05:04:14.666Z,0
2017-11-06T05:05:14.341Z,0
2017-11-06T05:06:14.296Z,0
2017-11-06T05:07:14.272Z,0
2017-11-06T05:08:13.934Z,0
2017-11-06T05:09:14.927Z,0
2017-11-06T05:10:14.235Z,0
2017-11-06T05:11:13.885Z,0
2017-11-06T05:12:14.565Z,0
2017-11-06T05:13:14.192Z,0
2017-11-06T05:14:14.178Z,0
2017-11-06T05:15:14.197Z,0
2017-11-06T05:16:14.486Z,0
2017-11-06T05:17:13.790Z,0
2017-11-06T05:18:14.117Z,0
2017-11-06T05:19:13.756Z,0
2017-11-06T05:20:14.464Z,0
2017-11-06T05:21:14.078Z,0
2017-11-06T05:22:14.052Z,0
2017-11-06T05:23:13.695Z,0
2017-11-06T05:24:13.676Z,0
2017-11-06T05:25:13.669Z,0
2017-11-06T05:26:13.676Z,0
2017-11-06T05:27:14.324Z,0
2017-11-06T05:28:13.656Z,0
2017-11-06T05:29:13.608Z,0
2017-11-06T05:30:13.934Z,0
2017-11-06T05:31:14.306Z,0
2017-11-06T05:32:14.252Z,0
2017-11-06T05:33:14.608Z,0
2017-11-06T05:34:14.232Z,0
2017-11-06T05:35:14.235Z,0
2017-11-06T05:36:14.205Z,0
2017-11-06T05:37:14.172Z,0
2017-11-06T05:38:14.162Z,0
2017-11-06T05:39:13.805Z,0
2017-11-06T05:40:13.445Z,0
2017-11-06T05:41:14.129Z,0
2017-11-06T05:42:13.750Z,0
2017-11-06T05:43:14.099Z,0
2017-11-06T05:44:13.757Z,0
2017-11-06T05:45:14.060Z,0
2017-11-06T05:46:13.721Z,0
2017-11-06T05:47:14.054Z,0
2017-11-06T05:48:14.040Z,0
2017-11-06T05:49:13.310Z,0
2017-11-06T05:50:13.990Z,0
2017-11-06T05:51:13.279Z,0
2017-11-06T05:52:13.952Z,0
2017-11-06T05:53:13.597Z,0
2017-11-06T05:54:13.934Z,0
2017-11-06T05:55:13.562Z,0
2017-11-06T05:56:13.548Z,0
2017-11-06T05:57:13.869Z,0
2017-11-06T05:58:13.512Z,0
2017-11-06T05:59:13.565Z,0
2017-11-06T06:00:13.834Z,0
2017-11-06T06:01:13.128Z,0
2017-11-06T06:02:13.805Z,0
2017-11-06T06:03:13.801Z,0
2017-11-06T06:04:13.431Z,0
2017-11-06T06:05:13.418Z,0
2017-11-06T06:06:13.743Z,0
2017-11-06T06:07:13.379Z,0
2017-11-06T06:08:13.027Z,0
2017-11-06T06:09:13.011Z,0
2017-11-06T06:10:14.015Z,0
2017-11-06T06:11:13.326Z,0
2017-11-06T06:12:13.357Z,0
2017-11-06T06:13:13.292Z,0
2017-11-06T06:14:13.984Z,0
2017-11-06T06:15:13.946Z,0
2017-11-06T06:16:13.613Z,0
2017-11-06T06:17:13.617Z,0
2017-11-06T06:18:13.223Z,0
2017-11-06T06:19:13.417Z,0
2017-11-06T06:20:12.905Z,0
2017-11-06T06:21:12.838Z,0
2017-11-06T06:22:12.814Z,0
2017-11-06T06:23:13.161Z,0
2017-11-06T06:24:13.846Z,0
2017-11-06T06:25:13.589Z,5
2017-11-06T06:26:12.763Z,5
2017-11-06T06:27:13.769Z,5
2017-11-06T06:28:12.738Z,0
2017-11-06T06:29:13.497Z,5
2017-11-06T06:30:13.038Z,5
2017-11-06T06:31:12.682Z,5
2017-11-06T06:32:13.224Z,5
2017-11-06T06:33:13.365Z,5
2017-11-06T06:34:12.652Z,5
2017-11-06T06:35:12.965Z,10
2017-11-06T06:36:12.959Z,10
2017-11-06T06:37:13.277Z,5
2017-11-06T06:38:13.268Z,10
2017-11-06T06:39:12.643Z,5
2017-11-06T06:40:12.548Z,10
2017-11-06T06:41:13.242Z,10
2017-11-06T06:42:12.865Z,10
2017-11-06T06:43:12.850Z,10
2017-11-06T06:44:13.205Z,5
2017-11-06T06:45:12.473Z,5
2017-11-06T06:46:12.491Z,10
2017-11-06T06:47:13.126Z,10
2017-11-06T06:48:13.456Z,5
2017-11-06T06:49:12.761Z,5
2017-11-06T06:50:12.776Z,5
2017-11-06T06:51:13.107Z,5
2017-11-06T06:52:13.055Z,10
2017-11-06T06:53:13.040Z,15
2017-11-06T06:54:12.700Z,15
2017-11-06T06:55:12.718Z,15
2017-11-06T06:56:12.652Z,10
2017-11-06T06:57:12.988Z,10
2017-11-06T06:58:12.987Z,10
2017-11-06T06:59:12.728Z,10
2017-11-06T07:00:13.226Z,15
2017-11-06T07:01:12.923Z,20
2017-11-06T07:02:12.931Z,20
2017-11-06T07:03:12.888Z,15
2017-11-06T07:04:12.224Z,20
2017-11-06T07:05:12.578Z,20
2017-11-06T07:06:12.567Z,25
2017-11-06T07:07:13.064Z,20
2017-11-06T07:08:12.259Z,20
2017-11-06T07:09:12.521Z,15
2017-11-06T07:10:12.501Z,15
2017-11-06T07:11:12.990Z,20
2017-11-06T07:12:12.385Z,15
2017-11-06T07:13:12.288Z,15
2017-11-06T07:14:12.384Z,15
2017-11-06T07:15:12.392Z,25
2017-11-06T07:16:12.401Z,25
2017-11-06T07:17:12.724Z,20
2017-11-06T07:18:12.331Z,20
2017-11-06T07:19:13.000Z,25
2017-11-06T07:20:12.292Z,30
2017-11-06T07:21:12.279Z,20
2017-11-06T07:22:11.922Z,20
2017-11-06T07:23:12.661Z,20
2017-11-06T07:24:12.233Z,20
2017-11-06T07:25:12.249Z,25
2017-11-06T07:26:11.872Z,25
2017-11-06T07:27:11.842Z,25
2017-11-06T07:28:11.831Z,25
2017-11-06T07:29:12.181Z,30
2017-11-06T07:30:12.525Z,30
2017-11-06T07:31:12.187Z,30
2017-11-06T07:32:12.848Z,30
2017-11-06T07:33:12.471Z,35
2017-11-06T07:34:12.106Z,40
2017-11-06T07:35:12.337Z,35
2017-11-06T07:36:12.763Z,40
2017-11-06T07:37:12.036Z,35
2017-11-06T07:38:11.851Z,35
2017-11-06T07:39:11.668Z,50
2017-11-06T07:40:12.648Z,45
2017-11-06T07:41:12.341Z,50
2017-11-06T07:42:12.297Z,55
2017-11-06T07:43:11.960Z,60
2017-11-06T07:44:11.989Z,55
2017-11-06T07:45:12.635Z,45
2017-11-06T07:46:11.636Z,50
2017-11-06T07:47:11.555Z,55
2017-11-06T07:48:11.876Z,60
2017-11-06T07:49:11.900Z,50
2017-11-06T07:50:11.585Z,50
2017-11-06T07:51:12.528Z,60
2017-11-06T07:52:11.834Z,60
2017-11-06T07:53:11.806Z,45
2017-11-06T07:54:11.447Z,55
2017-11-06T07:55:11.445Z,45
2017-11-06T07:56:11.788Z,55
2017-11-06T07:57:11.975Z,45
2017-11-06T07:58:11.425Z,45
2017-11-06T07:59:11.732Z,45
2017-11-06T08:00:12.067Z,55
2017-11-06T08:01:12.058Z,55
2017-11-06T08:02:12.040Z,70
2017-11-06T08:03:11.991Z,55
2017-11-06T08:04:12.318Z,55
2017-11-06T08:05:11.636Z,50
2017-11-06T08:06:11.612Z,65
2017-11-06T08:07:11.277Z,60
2017-11-06T08:08:12.277Z,55
2017-11-06T08:09:11.931Z,55
2017-11-06T08:10:11.207Z,50
2017-11-06T08:11:11.549Z,60
2017-11-06T08:12:11.538Z,70
2017-11-06T08:13:11.505Z,65
2017-11-06T08:14:11.853Z,55
2017-11-06T08:15:11.488Z,50
2017-11-06T08:16:11.461Z,60
2017-11-06T08:17:11.789Z,60
2017-11-06T08:18:12.112Z,60
2017-11-06T08:19:11.431Z,35
2017-11-06T08:20:12.291Z,50
2017-11-06T08:21:11.043Z,50
2017-11-06T08:22:11.709Z,45
2017-11-06T08:23:11.368Z,35
2017-11-06T08:24:11.347Z,40
2017-11-06T08:25:11.332Z,40
2017-11-06T08:26:11.321Z,30
2017-11-06T08:27:10.956Z,30
2017-11-06T08:28:10.941Z,25
2017-11-06T08:29:11.691Z,30
2017-11-06T08:30:11.855Z,30
2017-11-06T08:31:11.580Z,35
2017-11-06T08:32:11.575Z,40
2017-11-06T08:33:11.226Z,40
2017-11-06T08:34:11.560Z,40
2017-11-06T08:35:10.837Z,35
2017-11-06T08:36:10.819Z,40
2017-11-06T08:37:11.842Z,35
2017-11-06T08:38:11.480Z,35
2017-11-06T08:39:10.798Z,45
2017-11-06T08:40:11.127Z,40
2017-11-06T08:41:11.132Z,30
2017-11-06T08:42:11.093Z,30
2017-11-06T08:43:10.719Z,35
2017-11-06T08:44:11.470Z,35
2017-11-06T08:45:11.053Z,30
2017-11-06T08:46:11.021Z,30
2017-11-06T08:47:10.998Z,40
2017-11-06T08:48:11.363Z,40
2017-11-06T08:49:11.660Z,40
2017-11-06T08:50:11.297Z,40
2017-11-06T08:51:10.940Z,35
2017-11-06T08:52:10.921Z,35
2017-11-06T08:53:10.569Z,35
2017-11-06T08:54:11.587Z,40
2017-11-06T08:55:11.573Z,35
2017-11-06T08:56:10.546Z,30
2017-11-06T08:57:10.847Z,25
2017-11-06T08:58:10.860Z,30
2017-11-06T08:59:10.862Z,35
2017-11-06T09:00:11.194Z,35
2017-11-06T09:01:11.140Z,40
2017-11-06T09:02:11.141Z,35
2017-11-06T09:03:10.799Z,40
2017-11-06T09:04:10.748Z,45
2017-11-06T09:05:10.732Z,50
2017-11-06T09:06:10.721Z,50
2017-11-06T09:07:10.703Z,50
2017-11-06T09:08:11.026Z,55
2017-11-06T09:09:10.670Z,65
2017-11-06T09:10:10.328Z,65
2017-11-06T09:11:10.639Z,65
2017-11-06T09:12:10.289Z,65
2017-11-06T09:13:10.263Z,65
2017-11-06T09:14:10.256Z,65
2017-11-06T09:15:10.238Z,65
2017-11-06T09:16:11.598Z,65
2017-11-06T09:17:10.911Z,60
2017-11-06T09:18:11.252Z,70
2017-11-06T09:19:10.203Z,75
2017-11-06T09:20:10.513Z,65
2017-11-06T09:21:10.526Z,70
2017-11-06T09:22:10.488Z,65
2017-11-06T09:23:10.463Z,65
2017-11-06T09:24:10.446Z,60
2017-11-06T09:25:10.782Z,70
2017-11-06T09:26:10.075Z,70
2017-11-06T09:27:10.402Z,65
2017-11-06T09:28:10.401Z,65
2017-11-06T09:29:10.035Z,65
2017-11-06T09:30:10.726Z,70
2017-11-06T09:31:10.373Z,70
2017-11-06T09:32:11.028Z,70
2017-11-06T09:33:10.347Z,70
2017-11-06T09:34:10.304Z,70
2017-11-06T09:35:09.957Z,70
2017-11-06T09:36:10.260Z,70
2017-11-06T09:37:10.603Z,70
2017-11-06T09:38:10.240Z,70
2017-11-06T09:39:10.222Z,70
2017-11-06T09:40:10.232Z,80
2017-11-06T09:41:10.209Z,80
2017-11-06T09:42:10.858Z,80
2017-11-06T09:43:10.868Z,80
2017-11-06T09:44:10.152Z,70
2017-11-06T09:45:10.836Z,70
2017-11-06T09:46:10.467Z,80
2017-11-06T09:47:10.136Z,80
2017-11-06T09:48:10.105Z,80
2017-11-06T09:49:09.739Z,85
2017-11-06T09:50:10.066Z,85
2017-11-06T09:51:10.057Z,85
2017-11-06T09:52:10.030Z,80
2017-11-06T09:53:10.015Z,75
2017-11-06T09:54:10.691Z,75
2017-11-06T09:55:10.383Z,70
2017-11-06T09:56:10.317Z,70
2017-11-06T09:57:09.643Z,65
2017-11-06T09:58:10.313Z,70
2017-11-06T09:59:10.637Z,65
2017-11-06T10:00:09.918Z,70
2017-11-06T10:01:10.252Z,65
2017-11-06T10:02:09.890Z,65
2017-11-06T10:03:09.882Z,70
2017-11-06T10:04:09.892Z,80
2017-11-06T10:05:09.857Z,75
2017-11-06T10:06:10.163Z,95
2017-11-06T10:07:09.812Z,95
2017-11-06T10:08:09.483Z,115
2017-11-06T10:09:10.126Z,140
2017-11-06T10:10:09.455Z,145
2017-11-06T10:11:09.755Z,150
2017-11-06T10:12:09.397Z,135
2017-11-06T10:13:10.062Z,120
2017-11-06T10:14:09.379Z,120
2017-11-06T10:15:10.058Z,115
2017-11-06T10:16:09.397Z,105
2017-11-06T10:17:09.355Z,100
2017-11-06T10:18:10.030Z,105
2017-11-06T10:19:09.658Z,90
2017-11-06T10:20:09.623Z,85
2017-11-06T10:21:09.262Z,115
2017-11-06T10:22:09.596Z,130
2017-11-06T10:23:09.933Z,125
2017-11-06T10:24:09.597Z,120
2017-11-06T10:25:09.581Z,120
2017-11-06T10:26:10.222Z,110
2017-11-06T10:27:09.517Z,90
2017-11-06T10:28:09.557Z,80
2017-11-06T10:29:09.490Z,80
2017-11-06T10:30:09.824Z,65
2017-11-06T10:31:09.515Z,70
2017-11-06T10:32:09.107Z,70
2017-11-06T10:33:09.435Z,80
2017-11-06T10:34:09.078Z,80
2017-11-06T10:35:09.063Z,65
2017-11-06T10:36:09.422Z,65
2017-11-06T10:37:09.383Z,75
2017-11-06T10:38:09.021Z,75
2017-11-06T10:39:09.699Z,65
2017-11-06T10:40:10.013Z,60
2017-11-06T10:41:09.322Z,60
2017-11-06T10:42:09.991Z,65
2017-11-06T10:43:09.629Z,75
2017-11-06T10:44:08.952Z,85
2017-11-06T10:45:09.262Z,75
2017-11-06T10:46:09.245Z,70
2017-11-06T10:47:09.272Z,75
2017-11-06T10:48:09.571Z,75
2017-11-06T10:49:08.863Z,85
2017-11-06T10:50:08.850Z,85
2017-11-06T10:51:09.196Z,80
2017-11-06T10:52:08.818Z,90
2017-11-06T10:53:09.146Z,85
2017-11-06T10:54:09.162Z,80
2017-11-06T10:55:09.802Z,90
2017-11-06T10:56:09.118Z,85
2017-11-06T10:57:09.448Z,85
2017-11-06T10:58:08.734Z,80
2017-11-06T10:59:08.718Z,85
2017-11-06T11:00:08.702Z,85
2017-11-06T11:01:08.700Z,75
2017-11-06T11:02:09.364Z,75
2017-11-06T11:03:09.687Z,90
2017-11-06T11:04:08.642Z,85
2017-11-06T11:05:09.326Z,85
2017-11-06T11:06:08.964Z,90
2017-11-06T11:07:08.947Z,95
2017-11-06T11:08:08.583Z,85
2017-11-06T11:09:08.930Z,85
2017-11-06T11:10:08.560Z,85
2017-11-06T11:11:09.575Z,90
2017-11-06T11:12:08.527Z,85
2017-11-06T11:13:09.536Z,95
2017-11-06T11:14:09.175Z,85
2017-11-06T11:15:08.848Z,95
2017-11-06T11:16:09.171Z,115
2017-11-06T11:17:08.800Z,120
2017-11-06T11:18:08.782Z,130
2017-11-06T11:19:09.113Z,140
2017-11-06T11:20:09.102Z,145
2017-11-06T11:21:09.087Z,170
2017-11-06T11:22:09.097Z,160
2017-11-06T11:23:09.054Z,155
2017-11-06T11:24:09.054Z,140
2017-11-06T11:25:09.025Z,150
2017-11-06T11:26:08.336Z,155
2017-11-06T11:27:08.661Z,135
2017-11-06T11:28:08.646Z,180
2017-11-06T11:29:08.296Z,165
2017-11-06T11:30:08.612Z,170
2017-11-06T11:31:08.277Z,125
2017-11-06T11:32:08.593Z,130
2017-11-06T11:33:09.253Z,130
2017-11-06T11:34:08.567Z,125
2017-11-06T11:35:08.547Z,135
2017-11-06T11:36:09.264Z,145
2017-11-06T11:37:08.871Z,190
2017-11-06T11:38:08.523Z,170
2017-11-06T11:39:08.157Z,180
2017-11-06T11:40:08.822Z,200
2017-11-06T11:41:09.153Z,195
2017-11-06T11:42:09.153Z,190
2017-11-06T11:43:08.432Z,175
2017-11-06T11:44:08.764Z,160
2017-11-06T11:45:08.752Z,185
2017-11-06T11:46:08.051Z,195
2017-11-06T11:47:08.031Z,195
2017-11-06T11:48:08.758Z,180
2017-11-06T11:49:08.351Z,175
2017-11-06T11:50:08.018Z,185
2017-11-06T11:51:08.321Z,200
2017-11-06T11:52:08.323Z,215
2017-11-06T11:53:08.637Z,190
2017-11-06T11:54:08.297Z,180
2017-11-06T11:55:08.940Z,175
2017-11-06T11:56:08.606Z,180
2017-11-06T11:57:08.594Z,180
2017-11-06T11:58:08.573Z,195
2017-11-06T11:59:08.238Z,190
2017-11-06T12:00:08.196Z,175
2017-11-06T12:01:07.842Z,145
2017-11-06T12:02:08.534Z,125
2017-11-06T12:03:07.857Z,135
2017-11-06T12:04:09.175Z,130
2017-11-06T12:05:08.477Z,130
2017-11-06T12:06:08.136Z,125
2017-11-06T12:07:08.444Z,115
2017-11-06T12:08:08.082Z,115
2017-11-06T12:09:08.413Z,105
2017-11-06T12:10:08.404Z,125
2017-11-06T12:11:08.399Z,100
2017-11-06T12:12:08.029Z,80
2017-11-06T12:13:08.701Z,70
2017-11-06T12:14:08.352Z,80
2017-11-06T12:15:08.385Z,75
2017-11-06T12:16:07.978Z,80
2017-11-06T12:17:07.618Z,100
2017-11-06T12:18:07.946Z,110
2017-11-06T12:19:07.938Z,120
2017-11-06T12:20:07.921Z,135
2017-11-06T12:21:08.272Z,135
2017-11-06T12:22:08.245Z,165
2017-11-06T12:23:08.242Z,185
2017-11-06T12:24:07.868Z,200
2017-11-06T12:25:07.851Z,205
2017-11-06T12:26:08.178Z,235
2017-11-06T12:27:08.165Z,245
2017-11-06T12:28:07.813Z,260
2017-11-06T12:29:08.135Z,265
2017-11-06T12:30:08.818Z,260
2017-11-06T12:31:07.785Z,250
2017-11-06T12:32:08.095Z,225
2017-11-06T12:33:07.734Z,215
2017-11-06T12:34:07.399Z,195
2017-11-06T12:35:08.392Z,170
2017-11-06T12:36:08.393Z,140
2017-11-06T12:37:07.351Z,115
2017-11-06T12:38:08.023Z,105
2017-11-06T12:39:07.369Z,90
2017-11-06T12:40:07.645Z,70
2017-11-06T12:41:07.289Z,60
2017-11-06T12:42:07.619Z,65
2017-11-06T12:43:07.602Z,100
2017-11-06T12:44:07.251Z,135
2017-11-06T12:45:07.577Z,160
2017-11-06T12:46:07.427Z,155
2017-11-06T12:47:07.211Z,175
2017-11-06T12:48:07.889Z,165
2017-11-06T12:49:07.529Z,170
2017-11-06T12:50:07.914Z,145
2017-11-06T12:51:08.190Z,125
2017-11-06T12:52:07.143Z,125
2017-11-06T12:53:07.471Z,150
2017-11-06T12:54:07.491Z,115
2017-11-06T12:55:07.450Z,125
2017-11-06T12:56:07.428Z,125
2017-11-06T12:57:07.077Z,135
2017-11-06T12:58:07.401Z,155
2017-11-06T12:59:07.399Z,145
2017-11-06T13:00:07.716Z,135
2017-11-06T13:01:07.701Z,135
2017-11-06T13:02:07.689Z,130
2017-11-06T13:03:07.685Z,140
2017-11-06T13:04:07.664Z,130
2017-11-06T13:05:06.969Z,140
2017-11-06T13:06:08.368Z,160
2017-11-06T13:07:06.941Z,170
2017-11-06T13:08:07.605Z,155
2017-11-06T13:09:07.260Z,140
2017-11-06T13:10:07.278Z,125
2017-11-06T13:11:06.884Z,130
2017-11-06T13:12:07.924Z,135
2017-11-06T13:13:07.225Z,115
2017-11-06T13:14:07.862Z,90
2017-11-06T13:15:06.847Z,55
2017-11-06T13:16:07.531Z,45
2017-11-06T13:17:06.808Z,75
2017-11-06T13:18:06.792Z,100
2017-11-06T13:19:07.151Z,110
2017-11-06T13:20:07.797Z,120
2017-11-06T13:21:07.095Z,135
2017-11-06T13:22:07.088Z,145
2017-11-06T13:23:07.071Z,130
2017-11-06T13:24:07.055Z,125
2017-11-06T13:25:07.067Z,125
2017-11-06T13:26:07.037Z,120
2017-11-06T13:27:07.363Z,110
2017-11-06T13:28:07.344Z,115
2017-11-06T13:29:06.655Z,125
2017-11-06T13:30:06.983Z,95
2017-11-06T13:31:06.618Z,85
2017-11-06T13:32:07.285Z,95
2017-11-06T13:33:07.267Z,100
2017-11-06T13:34:07.260Z,110
2017-11-06T13:35:06.907Z,110
2017-11-06T13:36:06.567Z,115
2017-11-06T13:37:06.878Z,105
2017-11-06T13:38:07.232Z,100
2017-11-06T13:39:06.517Z,110
2017-11-06T13:40:07.519Z,125
2017-11-06T13:41:07.181Z,125
2017-11-06T13:42:07.160Z,130
2017-11-06T13:43:07.184Z,130
2017-11-06T13:44:06.811Z,110
2017-11-06T13:45:06.772Z,95
2017-11-06T13:46:06.411Z,90
2017-11-06T13:47:06.752Z,80
2017-11-06T13:48:07.089Z,75
2017-11-06T13:49:06.714Z,70
2017-11-06T13:50:07.071Z,70
2017-11-06T13:51:06.698Z,70
2017-11-06T13:52:07.015Z,85
2017-11-06T13:53:07.026Z,80
2017-11-06T13:54:06.644Z,75
2017-11-06T13:55:06.993Z,90
2017-11-06T13:56:06.629Z,95
2017-11-06T13:57:06.268Z,75
2017-11-06T13:58:06.607Z,80
2017-11-06T13:59:07.263Z,85
2017-11-06T14:00:06.593Z,105
2017-11-06T14:01:06.561Z,115
2017-11-06T14:02:06.538Z,120
2017-11-06T14:03:06.186Z,110
2017-11-06T14:04:06.868Z,100
2017-11-06T14:05:06.513Z,90
2017-11-06T14:06:06.484Z,80
2017-11-06T14:07:06.494Z,65
2017-11-06T14:08:07.138Z,65
2017-11-06T14:09:06.105Z,70
2017-11-06T14:10:06.425Z,60
2017-11-06T14:11:07.662Z,45
2017-11-06T14:12:06.747Z,40
2017-11-06T14:13:06.385Z,40
2017-11-06T14:14:06.372Z,40
2017-11-06T14:15:06.016Z,45
2017-11-06T14:16:06.059Z,40
2017-11-06T14:17:06.332Z,45
2017-11-06T14:18:06.321Z,50
2017-11-06T14:19:06.319Z,45
2017-11-06T14:20:06.294Z,50
2017-11-06T14:21:06.615Z,70
2017-11-06T14:22:06.280Z,70
2017-11-06T14:23:06.249Z,75
2017-11-06T14:24:06.599Z,80